createdAt,value
2022-11-05T00:00:51.759Z,100885.44
2022-11-05T00:03:38.057Z,100884.69
2022-11-05T00:06:27.792Z,100879.50
2022-11-05T00:09:14.365Z,100891.19
2022-11-05T00:12:00.434Z,100885.03
2022-11-05T00:14:46.439Z,100884.50
2022-11-05T00:17:13.922Z,100878.91
2022-11-05T00:19:41.387Z,100889.22
2022-11-05T00:22:27.355Z,100879.88
2022-11-05T00:25:13.227Z,100879.03
2022-11-05T00:27:41.444Z,100884.13
2022-11-05T00:30:09.774Z,100885.72
2022-11-05T00:32:37.805Z,100882.84
2022-11-05T00:35:07.446Z,100879.97
2022-11-05T00:37:35.753Z,100883.16
2022-11-05T00:40:04.436Z,100878.56
2022-11-05T00:42:50.575Z,100880.16
2022-11-05T00:45:18.282Z,100874.75
2022-11-05T00:48:04.953Z,100886.72
2022-11-05T00:50:33.703Z,100869.25
2022-11-05T00:53:01.933Z,100868.81
2022-11-05T00:55:38.448Z,100868.69
2022-11-05T00:58:23.959Z,100869.25
2022-11-05T01:00:54.213Z,100874.56
2022-11-05T01:03:24.511Z,100866.59
2022-11-05T01:05:55.130Z,100864.78
2022-11-05T01:08:24.875Z,100862.13
2022-11-05T01:10:57.761Z,100860.06
2022-11-05T01:13:28.521Z,100867.00
2022-11-05T01:15:56.552Z,100862.41
2022-11-05T01:18:25.439Z,100867.50
2022-11-05T01:20:53.196Z,100862.91
2022-11-05T01:23:21.235Z,100855.69
2022-11-05T01:25:49.136Z,100855.31
2022-11-05T01:28:16.795Z,100847.34
2022-11-05T01:30:44.436Z,100839.50
2022-11-05T01:33:12.144Z,100838.97
2022-11-05T01:35:40.046Z,100835.19
2022-11-05T01:38:07.526Z,100832.00
2022-11-05T01:40:35.140Z,100839.34
2022-11-05T01:43:02.636Z,100832.44
2022-11-05T01:45:30.182Z,100836.91
2022-11-05T01:48:23.510Z,100834.13
2022-11-05T01:50:56.942Z,100825.84
2022-11-05T01:53:36.271Z,100827.22
2022-11-05T01:56:29.633Z,100828.69
2022-11-05T01:59:09.354Z,100832.06
2022-11-05T02:01:37.020Z,100828.56
2022-11-05T02:04:09.568Z,100819.72
2022-11-05T02:06:46.064Z,100806.44
2022-11-05T02:09:18.777Z,100810.53
2022-11-05T02:11:46.932Z,100816.47
2022-11-05T02:14:14.393Z,100813.72
2022-11-05T02:16:49.447Z,100808.28
2022-11-05T02:19:57.372Z,100792.31
2022-11-05T02:23:02.273Z,100792.53
2022-11-05T02:26:11.903Z,100795.56
2022-11-05T02:29:04.036Z,100784.75
2022-11-05T02:31:34.224Z,100783.59
2022-11-05T02:34:33.124Z,100778.97
2022-11-05T02:37:15.359Z,100769.00
2022-11-05T02:39:54.462Z,100778.50
2022-11-05T02:42:29.917Z,100780.53
2022-11-05T02:45:05.300Z,100777.03
2022-11-05T02:47:45.892Z,100773.41
2022-11-05T02:50:25.020Z,100773.94
2022-11-05T02:53:23.886Z,100774.44
2022-11-05T02:56:04.335Z,100768.56
2022-11-05T02:58:33.809Z,100771.63
2022-11-05T03:01:06.848Z,100765.72
2022-11-05T03:03:39.063Z,100759.22
2022-11-05T03:06:34.038Z,100755.50
2022-11-05T03:09:15.470Z,100750.78
2022-11-05T03:11:51.483Z,100743.41
2022-11-05T03:14:50.209Z,100739.59
2022-11-05T03:17:17.817Z,100744.66
2022-11-05T03:19:53.855Z,100742.72
2022-11-05T03:22:26.130Z,100736.34
2022-11-05T03:25:02.433Z,100729.09
2022-11-05T03:27:34.649Z,100725.47
2022-11-05T03:30:06.856Z,100731.75
2022-11-05T03:32:38.631Z,100732.84
2022-11-05T03:35:12.971Z,100715.50
2022-11-05T03:37:43.567Z,100712.25
2022-11-05T03:40:13.779Z,100699.28
2022-11-05T03:42:45.308Z,100698.78
2022-11-05T03:45:20.774Z,100698.28
2022-11-05T03:47:51.275Z,100677.94
2022-11-05T03:50:29.028Z,100680.19
2022-11-05T03:53:19.955Z,100671.97
2022-11-05T03:55:50.893Z,100677.16
2022-11-05T03:58:21.756Z,100677.75
2022-11-05T04:00:50.866Z,100679.34
2022-11-05T04:03:18.575Z,100677.28
2022-11-05T04:06:06.359Z,100670.78
2022-11-05T04:08:52.756Z,100660.75
2022-11-05T04:11:38.826Z,100664.97
2022-11-05T04:14:06.393Z,100653.25
2022-11-05T04:16:52.543Z,100654.97
2022-11-05T04:19:40.078Z,100646.84
2022-11-05T04:22:26.473Z,100651.09
2022-11-05T04:24:54.036Z,100645.63
2022-11-05T04:27:21.529Z,100648.06
2022-11-05T04:30:07.549Z,100636.22
2022-11-05T04:32:35.056Z,100638.63
2022-11-05T04:35:02.677Z,100632.94
2022-11-05T04:37:30.266Z,100624.59
2022-11-05T04:39:57.728Z,100626.06
2022-11-05T04:42:25.382Z,100622.88
2022-11-05T04:44:52.873Z,100622.63
2022-11-05T04:47:20.340Z,100621.44
2022-11-05T04:49:47.807Z,100625.53
2022-11-05T04:52:15.463Z,100618.28
2022-11-05T04:54:42.940Z,100613.81
2022-11-05T04:57:10.399Z,100600.50
2022-11-05T04:59:37.976Z,100594.91
2022-11-05T05:02:05.632Z,100592.25
2022-11-05T05:04:33.294Z,100593.78
2022-11-05T05:07:00.812Z,100595.38
2022-11-05T05:09:28.312Z,100588.22
2022-11-05T05:11:55.815Z,100588.97
2022-11-05T05:14:23.376Z,100587.03
2022-11-05T05:16:50.885Z,100585.19
2022-11-05T05:19:18.408Z,100582.41
2022-11-05T05:21:45.994Z,100575.25
2022-11-05T05:24:17.469Z,100567.25
2022-11-05T05:26:50.266Z,100562.06
2022-11-05T05:29:18.601Z,100562.31
2022-11-05T05:31:46.149Z,100556.16
2022-11-05T05:34:14.879Z,100558.69
2022-11-05T05:36:42.314Z,100550.56
2022-11-05T05:39:11.133Z,100537.38
2022-11-05T05:41:38.835Z,100535.69
2022-11-05T05:44:06.760Z,100525.88
2022-11-05T05:46:34.294Z,100518.63
2022-11-05T05:49:01.894Z,100508.78
2022-11-05T05:51:29.371Z,100503.22
2022-11-05T05:53:56.884Z,100501.41
2022-11-05T05:56:24.392Z,100503.91
2022-11-05T05:58:52.350Z,100503.22
2022-11-05T06:01:20.314Z,100495.59
2022-11-05T06:03:48.994Z,100493.19
2022-11-05T06:06:21.207Z,100493.47
2022-11-05T06:08:49.171Z,100487.41
2022-11-05T06:11:16.814Z,100485.97
2022-11-05T06:13:44.511Z,100488.50
2022-11-05T06:16:12.066Z,100486.09
2022-11-05T06:18:39.722Z,100477.41
2022-11-05T06:21:09.963Z,100475.81
2022-11-05T06:23:39.895Z,100476.53
2022-11-05T06:26:13.427Z,100467.59
2022-11-05T06:28:42.418Z,100477.25
2022-11-05T06:31:10.909Z,100458.63
2022-11-05T06:33:39.763Z,100462.13
2022-11-05T06:36:08.888Z,100464.69
2022-11-05T06:38:36.940Z,100456.53
2022-11-05T06:41:10.044Z,100444.47
2022-11-05T06:43:38.741Z,100443.72
2022-11-05T06:46:06.821Z,100443.97
2022-11-05T06:48:34.397Z,100437.97
2022-11-05T06:51:02.578Z,100437.38
2022-11-05T06:53:30.712Z,100429.50
2022-11-05T06:56:01.387Z,100427.81
2022-11-05T06:58:29.601Z,100425.84
2022-11-05T07:01:01.512Z,100418.84
2022-11-05T07:03:29.651Z,100411.00
2022-11-05T07:06:00.443Z,100399.88
2022-11-05T07:08:32.391Z,100403.53
2022-11-05T07:11:00.209Z,100397.63
2022-11-05T07:13:28.027Z,100394.22
2022-11-05T07:15:56.083Z,100388.91
2022-11-05T07:18:24.042Z,100388.16
2022-11-05T07:20:51.634Z,100380.31
2022-11-05T07:23:19.197Z,100379.34
2022-11-05T07:25:46.883Z,100375.84
2022-11-05T07:28:14.637Z,100387.31
2022-11-05T07:30:42.279Z,100393.50
2022-11-05T07:33:10.297Z,100389.88
2022-11-05T07:35:38.059Z,100383.56
2022-11-05T07:38:05.629Z,100377.28
2022-11-05T07:40:33.135Z,100380.91
2022-11-05T07:43:01.790Z,100383.44
2022-11-05T07:45:31.317Z,100378.00
2022-11-05T07:48:01.358Z,100373.66
2022-11-05T07:50:32.129Z,100362.88
2022-11-05T07:53:01.386Z,100369.88
2022-11-05T07:55:30.628Z,100368.91
2022-11-05T07:57:59.068Z,100356.19
2022-11-05T08:00:27.807Z,100355.09
2022-11-05T08:03:07.665Z,100354.13
2022-11-05T08:05:47.680Z,100345.97
2022-11-05T08:08:19.836Z,100336.78
2022-11-05T08:10:47.439Z,100340.13
2022-11-05T08:13:15.528Z,100339.03
2022-11-05T08:15:43.696Z,100340.34
2022-11-05T08:18:14.810Z,100335.47
2022-11-05T08:20:43.713Z,100333.25
2022-11-05T08:23:11.896Z,100338.31
2022-11-05T08:25:40.271Z,100324.50
2022-11-05T08:28:13.590Z,100319.75
2022-11-05T08:30:41.247Z,100316.81
2022-11-05T08:33:13.234Z,100319.22
2022-11-05T08:35:41.977Z,100316.41
2022-11-05T08:38:15.992Z,100319.78
2022-11-05T08:40:45.478Z,100309.13
2022-11-05T08:43:14.772Z,100301.97
2022-11-05T08:45:42.755Z,100303.53
2022-11-05T08:48:15.613Z,100296.13
2022-11-05T08:50:44.463Z,100293.28
2022-11-05T08:53:12.595Z,100291.34
2022-11-05T08:55:40.430Z,100284.19
2022-11-05T08:58:12.690Z,100277.91
2022-11-05T09:00:40.870Z,100274.38
2022-11-05T09:03:09.942Z,100270.75
2022-11-05T09:05:40.145Z,100264.72
2022-11-05T09:08:32.772Z,100261.31
2022-11-05T09:11:00.951Z,100259.66
2022-11-05T09:13:28.829Z,100260.47
2022-11-05T09:15:58.907Z,100254.31
2022-11-05T09:18:26.656Z,100249.81
2022-11-05T09:20:54.307Z,100251.66
2022-11-05T09:23:22.197Z,100241.00
2022-11-05T09:25:49.899Z,100236.66
2022-11-05T09:28:19.105Z,100226.94
2022-11-05T09:31:12.335Z,100221.63
2022-11-05T09:33:41.095Z,100216.44
2022-11-05T09:36:08.985Z,100214.06
2022-11-05T09:38:37.088Z,100217.56
2022-11-05T09:41:24.129Z,100213.22
2022-11-05T09:43:56.578Z,100207.72
2022-11-05T09:46:27.318Z,100203.13
2022-11-05T09:49:06.196Z,100194.84
2022-11-05T09:51:36.202Z,100194.72
2022-11-05T09:54:05.643Z,100191.50
2022-11-05T09:56:37.288Z,100179.59
2022-11-05T09:59:17.513Z,100181.84
2022-11-05T10:01:46.162Z,100176.38
2022-11-05T10:04:18.313Z,100187.63
2022-11-05T10:07:05.504Z,100174.84
2022-11-05T10:09:56.045Z,100177.09
2022-11-05T10:12:34.599Z,100169.66
2022-11-05T10:15:21.706Z,100159.28
2022-11-05T10:17:58.662Z,100165.72
2022-11-05T10:20:38.343Z,100163.50
2022-11-05T10:23:17.887Z,100165.03
2022-11-05T10:25:47.998Z,100166.59
2022-11-05T10:28:20.970Z,100155.22
2022-11-05T10:30:55.745Z,100155.22
2022-11-05T10:33:30.910Z,100159.44
2022-11-05T10:36:04.683Z,100153.09
2022-11-05T10:38:33.366Z,100150.16
2022-11-05T10:41:07.230Z,100150.72
2022-11-05T10:43:43.264Z,100151.47
2022-11-05T10:46:32.719Z,100145.84
2022-11-05T10:49:20.649Z,100149.91
2022-11-05T10:51:55.733Z,100157.47
2022-11-05T10:54:26.460Z,100150.16
2022-11-05T10:56:54.037Z,100153.66
2022-11-05T10:59:30.260Z,100148.22
2022-11-05T11:02:01.159Z,100153.94
2022-11-05T11:04:36.540Z,100144.94
2022-11-05T11:07:05.746Z,100150.84
2022-11-05T11:09:36.637Z,100143.25
2022-11-05T11:12:19.699Z,100145.50
2022-11-05T11:15:28.247Z,100130.59
2022-11-05T11:17:56.678Z,100120.16
2022-11-05T11:20:28.836Z,100114.38
2022-11-05T11:23:17.045Z,100119.28
2022-11-05T11:26:03.781Z,100128.53
2022-11-05T11:28:46.094Z,100128.94
2022-11-05T11:31:15.164Z,100129.66
2022-11-05T11:33:47.110Z,100125.81
2022-11-05T11:36:18.703Z,100124.69
2022-11-05T11:38:46.426Z,100125.41
2022-11-05T11:41:30.522Z,100117.91
2022-11-05T11:44:24.693Z,100103.97
2022-11-05T11:46:55.595Z,100098.72
2022-11-05T11:49:53.530Z,100092.41
2022-11-05T11:52:36.728Z,100112.63
2022-11-05T11:55:22.933Z,100124.41
2022-11-05T11:57:53.389Z,100112.41
2022-11-05T12:00:24.127Z,100103.28
2022-11-05T12:03:22.685Z,100096.63
2022-11-05T12:05:53.259Z,100104.88
2022-11-05T12:09:05.335Z,100100.47
2022-11-05T12:11:44.545Z,100099.09
2022-11-05T12:14:33.071Z,100092.56
2022-11-05T12:17:15.741Z,100093.44
2022-11-05T12:19:49.304Z,100101.03
2022-11-05T12:22:38.290Z,100091.69
2022-11-05T12:25:33.375Z,100105.28
2022-11-05T12:28:13.890Z,100107.28
2022-11-05T12:30:54.066Z,100099.94
2022-11-05T12:33:42.360Z,100105.47
2022-11-05T12:36:15.643Z,100116.03
2022-11-05T12:38:51.822Z,100121.31
2022-11-05T12:41:39.393Z,100122.78
2022-11-05T12:44:44.358Z,100100.84
2022-11-05T12:47:24.809Z,100092.16
2022-11-05T12:50:10.080Z,100076.25
2022-11-05T12:53:14.904Z,100073.41
2022-11-05T12:55:49.563Z,100075.25
2022-11-05T12:58:40.035Z,100073.09
2022-11-05T13:01:13.479Z,100060.19
2022-11-05T13:03:53.427Z,100059.00
2022-11-05T13:06:40.354Z,100076.59
2022-11-05T13:09:20.105Z,100075.44
2022-11-05T13:11:57.357Z,100088.38
2022-11-05T13:14:30.834Z,100094.31
2022-11-05T13:17:13.211Z,100099.16
2022-11-05T13:19:57.118Z,100094.72
2022-11-05T13:22:39.971Z,100103.44
2022-11-05T13:25:11.029Z,100128.25
2022-11-05T13:27:46.147Z,100140.75
2022-11-05T13:30:26.442Z,100146.22
2022-11-05T13:33:04.303Z,100136.41
2022-11-05T13:35:41.250Z,100136.84
2022-11-05T13:38:36.461Z,100134.81
2022-11-05T13:41:34.110Z,100133.75
2022-11-05T13:44:35.737Z,100129.03
2022-11-05T13:47:09.354Z,100123.84
2022-11-05T13:50:06.854Z,100110.97
2022-11-05T13:53:04.731Z,100091.41
2022-11-05T13:56:03.265Z,100076.22
2022-11-05T13:58:55.950Z,100064.38
2022-11-05T14:01:42.879Z,100061.53
2022-11-05T14:04:25.557Z,100059.13
2022-11-05T14:06:54.258Z,100063.31
2022-11-05T14:09:27.553Z,100055.16
2022-11-05T14:11:57.409Z,100053.44
2022-11-05T14:14:30.859Z,100046.28
2022-11-05T14:17:07.221Z,100049.41
2022-11-05T14:20:06.946Z,100058.44
2022-11-05T14:22:34.482Z,100057.28
2022-11-05T14:25:24.372Z,100067.34
2022-11-05T14:27:52.659Z,100065.75
2022-11-05T14:30:44.425Z,100075.03
2022-11-05T14:33:24.342Z,100074.06
2022-11-05T14:35:53.690Z,100072.19
2022-11-05T14:38:28.416Z,100075.91
2022-11-05T14:41:01.557Z,100089.88
2022-11-05T14:43:33.641Z,100093.41
2022-11-05T14:46:06.207Z,100092.44
2022-11-05T14:48:44.261Z,100092.31
2022-11-05T14:51:40.627Z,100088.78
2022-11-05T14:54:25.178Z,100077.06
2022-11-05T14:56:58.748Z,100091.84
2022-11-05T14:59:28.848Z,100093.91
2022-11-05T15:02:01.745Z,100088.34
2022-11-05T15:04:33.654Z,100099.59
2022-11-05T15:07:04.888Z,100092.22
2022-11-05T15:09:38.296Z,100091.19
2022-11-05T15:12:09.625Z,100095.72
2022-11-05T15:15:00.835Z,100089.31
2022-11-05T15:17:38.759Z,100092.63
2022-11-05T15:20:41.575Z,100095.03
2022-11-05T15:23:14.738Z,100086.47
2022-11-05T15:25:53.335Z,100100.97
2022-11-05T15:28:38.423Z,100105.63
2022-11-05T15:31:26.831Z,100097.19
2022-11-05T15:34:20.513Z,100100.16
2022-11-05T15:37:00.201Z,100103.59
2022-11-05T15:39:38.398Z,100095.66
2022-11-05T15:42:13.435Z,100101.13
2022-11-05T15:44:45.291Z,100101.91
2022-11-05T15:47:17.526Z,100102.84
2022-11-05T15:49:48.368Z,100103.75
2022-11-05T15:52:18.074Z,100112.72
2022-11-05T15:54:45.893Z,100119.66
2022-11-05T15:57:29.218Z,100116.91
2022-11-05T15:59:56.866Z,100125.53
2022-11-05T16:02:27.064Z,100122.63
2022-11-05T16:04:55.296Z,100128.03
2022-11-05T16:07:23.376Z,100133.28
2022-11-05T16:09:57.138Z,100121.53
2022-11-05T16:12:30.561Z,100127.47
2022-11-05T16:15:10.598Z,100126.69
2022-11-05T16:17:44.227Z,100128.41
2022-11-05T16:20:18.194Z,100138.84
2022-11-05T16:22:51.701Z,100128.50
2022-11-05T16:25:31.372Z,100119.13
2022-11-05T16:28:00.671Z,100119.16
2022-11-05T16:30:31.538Z,100130.59
2022-11-05T16:33:08.044Z,100128.63
2022-11-05T16:35:40.319Z,100129.19
2022-11-05T16:38:11.922Z,100136.66
2022-11-05T16:40:39.624Z,100146.66
2022-11-05T16:43:18.999Z,100144.53
2022-11-05T16:45:46.839Z,100149.88
2022-11-05T16:48:15.258Z,100146.78
2022-11-05T16:50:45.399Z,100148.03
2022-11-05T16:53:13.661Z,100143.97
2022-11-05T16:55:43.294Z,100145.91
2022-11-05T16:58:23.428Z,100150.66
2022-11-05T17:00:55.371Z,100160.06
2022-11-05T17:03:22.927Z,100159.63
2022-11-05T17:05:50.500Z,100166.19
2022-11-05T17:08:18.191Z,100173.91
2022-11-05T17:10:45.970Z,100174.34
2022-11-05T17:13:16.372Z,100178.25
2022-11-05T17:15:46.885Z,100183.44
2022-11-05T17:18:18.526Z,100179.94
2022-11-05T17:20:49.842Z,100180.69
2022-11-05T17:23:20.118Z,100177.16
2022-11-05T17:25:51.081Z,100185.34
2022-11-05T17:28:19.788Z,100183.16
2022-11-05T17:30:54.293Z,100178.66
2022-11-05T17:33:23.392Z,100190.91
2022-11-05T17:35:52.872Z,100190.47
2022-11-05T17:38:22.221Z,100187.38
2022-11-05T17:40:50.496Z,100191.47
2022-11-05T17:43:18.931Z,100190.00
2022-11-05T17:45:49.852Z,100185.09
2022-11-05T17:48:18.817Z,100192.41
2022-11-05T17:50:48.646Z,100191.00
2022-11-05T17:53:18.785Z,100190.44
2022-11-05T17:55:47.232Z,100184.53
2022-11-05T17:58:14.958Z,100185.66
2022-11-05T18:00:44.327Z,100188.88
2022-11-05T18:03:13.054Z,100187.63
2022-11-05T18:05:41.678Z,100185.38
2022-11-05T18:08:09.979Z,100188.56
2022-11-05T18:10:38.672Z,100190.84
2022-11-05T18:13:06.893Z,100176.22
2022-11-05T18:15:36.407Z,100178.44
2022-11-05T18:18:04.363Z,100177.19
2022-11-05T18:20:32.964Z,100179.69
2022-11-05T18:23:00.579Z,100183.88
2022-11-05T18:25:28.081Z,100187.06
2022-11-05T18:27:56.089Z,100181.44
2022-11-05T18:30:23.661Z,100185.50
2022-11-05T18:32:51.332Z,100185.91
2022-11-05T18:35:18.870Z,100179.28
2022-11-05T18:37:46.457Z,100189.38
2022-11-05T18:40:14.098Z,100187.13
2022-11-05T18:42:41.723Z,100190.41
2022-11-05T18:45:10.415Z,100195.16
2022-11-05T18:47:38.522Z,100186.47
2022-11-05T18:50:07.812Z,100191.78
2022-11-05T18:52:35.641Z,100194.44
2022-11-05T18:55:03.488Z,100192.06
2022-11-05T18:57:33.570Z,100195.00
2022-11-05T19:00:01.140Z,100193.19
2022-11-05T19:02:28.801Z,100205.09
2022-11-05T19:05:22.533Z,100200.13
2022-11-05T19:07:44.340Z,100210.50
2022-11-05T19:10:11.889Z,100210.56
2022-11-05T19:12:40.529Z,100215.34
2022-11-05T19:15:08.933Z,100213.00
2022-11-05T19:17:36.838Z,100211.06
2022-11-05T19:20:06.939Z,100212.59
2022-11-05T19:22:34.537Z,100208.25
2022-11-05T19:25:02.048Z,100200.41
2022-11-05T19:27:29.643Z,100204.16
2022-11-05T19:29:57.320Z,100204.59
2022-11-05T19:32:24.827Z,100200.34
2022-11-05T19:34:52.323Z,100207.50
2022-11-05T19:37:20.095Z,100202.56
2022-11-05T19:39:47.570Z,100209.88
2022-11-05T19:42:15.080Z,100202.16
2022-11-05T19:44:43.814Z,100205.91
2022-11-05T19:47:11.372Z,100206.19
2022-11-05T19:49:38.889Z,100207.44
2022-11-05T19:52:06.858Z,100201.78
2022-11-05T19:54:36.028Z,100199.78
2022-11-05T19:57:03.690Z,100203.69
2022-11-05T19:59:31.321Z,100199.59
2022-11-05T20:01:58.990Z,100207.25
2022-11-05T20:04:26.726Z,100213.94
2022-11-05T20:06:54.254Z,100215.31
2022-11-05T20:09:23.209Z,100220.91
2022-11-05T20:11:54.368Z,100214.88
2022-11-05T20:14:23.748Z,100217.63
2022-11-05T20:16:51.336Z,100210.63
2022-11-05T20:19:21.145Z,100212.31
2022-11-05T20:21:48.738Z,100209.66
2022-11-05T20:24:23.794Z,100210.38
2022-11-05T20:26:56.335Z,100202.16
2022-11-05T20:29:30.526Z,100208.78
2022-11-05T20:32:02.362Z,100210.19
2022-11-05T20:34:30.820Z,100208.25
2022-11-05T20:36:58.429Z,100200.00
2022-11-05T20:39:26.069Z,100191.47
2022-11-05T20:41:53.627Z,100189.13
2022-11-05T20:44:21.172Z,100193.09
2022-11-05T20:46:48.845Z,100190.72
2022-11-05T20:49:20.044Z,100182.75
2022-11-05T20:51:50.203Z,100189.06
2022-11-05T20:54:17.814Z,100187.13
2022-11-05T20:56:45.439Z,100194.41
2022-11-05T20:59:12.939Z,100201.88
2022-11-05T21:01:40.697Z,100199.38
2022-11-05T21:04:08.408Z,100201.66
2022-11-05T21:06:36.106Z,100198.56
2022-11-05T21:09:04.327Z,100201.13
2022-11-05T21:11:51.869Z,100192.00
2022-11-05T21:14:19.695Z,100196.94
2022-11-05T21:16:47.205Z,100191.19
2022-11-05T21:19:15.747Z,100181.09
2022-11-05T21:21:43.268Z,100188.69
2022-11-05T21:24:10.840Z,100167.09
2022-11-05T21:26:38.359Z,100163.59
2022-11-05T21:29:07.727Z,100158.66
2022-11-05T21:31:38.498Z,100168.03
2022-11-05T21:34:06.134Z,100166.06
2022-11-05T21:36:34.041Z,100166.75
2022-11-05T21:39:02.042Z,100164.75
2022-11-05T21:41:29.732Z,100170.63
2022-11-05T21:43:57.444Z,100167.78
2022-11-05T21:46:25.214Z,100175.47
2022-11-05T21:48:53.029Z,100170.69
2022-11-05T21:51:39.205Z,100180.19
2022-11-05T21:54:25.620Z,100183.22
2022-11-05T21:57:11.731Z,100187.03
2022-11-05T21:59:48.052Z,100178.88
2022-11-05T22:02:18.885Z,100184.09
2022-11-05T22:04:50.235Z,100174.28
2022-11-05T22:07:24.674Z,100169.81
2022-11-05T22:09:52.490Z,100175.97
2022-11-05T22:12:20.329Z,100174.97
2022-11-05T22:14:47.855Z,100177.38
2022-11-05T22:17:15.730Z,100171.66
2022-11-05T22:19:43.332Z,100165.94
2022-11-05T22:22:11.403Z,100166.66
2022-11-05T22:24:40.175Z,100162.44
2022-11-05T22:27:15.436Z,100167.88
2022-11-05T22:29:43.325Z,100150.22
2022-11-05T22:32:11.401Z,100152.19
2022-11-05T22:34:39.149Z,100154.25
2022-11-05T22:37:06.924Z,100156.09
2022-11-05T22:39:34.477Z,100149.81
2022-11-05T22:42:05.704Z,100146.28
2022-11-05T22:44:36.868Z,100141.81
2022-11-05T22:47:04.892Z,100150.75
2022-11-05T22:49:33.310Z,100145.44
2022-11-05T22:52:00.866Z,100144.84
2022-11-05T22:54:28.452Z,100141.63
2022-11-05T22:56:55.897Z,100135.88
2022-11-05T22:59:23.532Z,100129.94
2022-11-05T23:01:51.159Z,100125.88
2022-11-05T23:04:18.731Z,100122.91
2022-11-05T23:07:04.873Z,100118.09
2022-11-05T23:09:53.061Z,100108.97
2022-11-05T23:12:31.872Z,100110.47
2022-11-05T23:15:00.885Z,100108.34
2022-11-05T23:17:47.514Z,100103.50
2022-11-05T23:20:37.257Z,100096.78
2022-11-05T23:23:27.909Z,100089.06
2022-11-05T23:26:21.656Z,100091.94
2022-11-05T23:28:49.684Z,100086.09
2022-11-05T23:31:35.608Z,100088.22
2022-11-05T23:34:03.207Z,100071.00
2022-11-05T23:36:49.068Z,100074.25
2022-11-05T23:39:16.734Z,100071.22
2022-11-05T23:42:02.685Z,100073.59
2022-11-05T23:44:49.084Z,100069.44
2022-11-05T23:47:35.379Z,100060.47
2022-11-05T23:50:02.957Z,100068.91
2022-11-05T23:52:30.476Z,100066.69
2022-11-05T23:54:57.985Z,100067.38
2022-11-05T23:57:25.530Z,100067.00
2022-11-05T23:59:53.103Z,100059.84
